Pagrindinis puslapis
METAR-TAF:

METAR-TAF

Oro uostai :

Altenstadt, Vokietija

platuma: 47-50N, ilguma: 010-52E, Aukštis: 739 m

Dabartinis oras

Ataskaita buvo paskelbta 34 minutes, ne 23:20 UTC
Vėjas 2 kt iš Pietvakarių
Temperatūra 6°C
Drėgmė 70%
Slėgis 1026 hPa

METAR: ETHA 072320Z AUTO 23002KT //// // ////// 06/01 Q1026 ///

Laikas: 01:54 (23:54 UTC)

Prognozė

Ataskaita buvo paskelbta 10 valandos ir 47 minutes, ne 13:07 UTC
Prognozė galioja nuo 07 metu 14 UTC su 07 metu 23 UTC
Vėjas 10 kt iš Rytų/Šiaurės Rytų su gūsio iki 20 kt
Matomumas 10 km arba daugiau
Mažai debesys ne aukštis 5000 ft
Tapsmas
nuo 07 metu 19 UTC su 07 metu 21 UTC
Vėjas 5 kt iš Šiaurės Rytų
Matomumas: 1400 m
Giedras dangus

TAF: ETHA 071307Z 0714/0723 07010G20KT 9999 NSW FEW050 BECMG 0719/0721 05005KT 9999 NSW SKC CANCEL 1400

Orai ataskaitas ir orų prognozės (METAR, TAF).

turimą stotys yra geltonos ir raudonos taškus žemėlapyje.

Perkelti pele per norėdami pamatyti stoties vardą.

Tada spustelėkite, norėdami matyti oro stebėjimo ir prognozės.

Norėdami pakeisti žemėlapį: spustelėkite ant žalios mygtukų su juodo kryžiaus žemyn,; žalią mygtuką su brūkšneliu, jei norite nutolinti; arba žalių rodyklių gretimoms žemėlapius.


METAR-TAF: